createdAt,value
2022-09-21T00:00:47.559Z,28.03
2022-09-21T00:01:49.302Z,28.16
2022-09-21T00:02:51.622Z,28.42
2022-09-21T00:03:58.564Z,28.01
2022-09-21T00:05:00.217Z,28.03
2022-09-21T00:06:06.669Z,27.99
2022-09-21T00:07:08.372Z,28.31
2022-09-21T00:08:13.204Z,27.76
2022-09-21T00:09:15.170Z,28.12
2022-09-21T00:10:17.006Z,28.40
2022-09-21T00:11:22.960Z,28.06
2022-09-21T00:12:24.584Z,28.46
2022-09-21T00:13:28.399Z,28.26
2022-09-21T00:14:31.327Z,27.83
2022-09-21T00:15:33.134Z,27.72
2022-09-21T00:16:35.457Z,27.84
2022-09-21T00:17:37.814Z,28.52
2022-09-21T00:18:39.546Z,27.96
2022-09-21T00:19:41.992Z,28.33
2022-09-21T00:20:43.713Z,28.07
2022-09-21T00:21:45.491Z,28.46
2022-09-21T00:22:48.314Z,28.39
2022-09-21T00:23:50.457Z,28.00
2022-09-21T00:24:52.121Z,28.20
2022-09-21T00:26:14.033Z,28.51
2022-09-21T00:27:15.762Z,27.89
2022-09-21T00:28:17.474Z,28.10
2022-09-21T00:29:19.205Z,27.90
2022-09-21T00:30:20.897Z,27.74
2022-09-21T00:31:23.173Z,28.43
2022-09-21T00:32:27.690Z,28.28
2022-09-21T00:33:29.357Z,27.97
2022-09-21T00:34:32.242Z,28.15
2022-09-21T00:35:34.766Z,27.87
2022-09-21T00:36:36.547Z,28.40
2022-09-21T00:37:38.306Z,27.76
2022-09-21T00:38:40.314Z,28.40
2022-09-21T00:39:42.012Z,27.85
2022-09-21T00:40:43.874Z,28.50
2022-09-21T00:41:46.099Z,28.14
2022-09-21T00:42:48.140Z,28.33
2022-09-21T00:44:15.911Z,28.02
2022-09-21T00:45:23.910Z,27.98
2022-09-21T00:46:29.977Z,27.75
2022-09-21T00:47:36.866Z,28.03
2022-09-21T00:48:39.105Z,28.05
2022-09-21T00:49:43.408Z,28.02
2022-09-21T00:50:50.665Z,28.24
2022-09-21T00:51:53.372Z,28.30
2022-09-21T00:52:58.570Z,28.16
2022-09-21T00:54:09.941Z,28.54
2022-09-21T00:55:26.261Z,27.75
2022-09-21T00:56:28.823Z,27.96
2022-09-21T00:57:32.013Z,28.18
2022-09-21T00:58:41.061Z,28.34
2022-09-21T00:59:45.097Z,27.73
2022-09-21T01:00:47.016Z,28.38
2022-09-21T01:01:49.213Z,27.67
2022-09-21T01:02:51.475Z,27.62
2022-09-21T01:03:53.833Z,27.72
2022-09-21T01:04:56.633Z,28.54
2022-09-21T01:05:58.422Z,28.20
2022-09-21T01:07:05.684Z,28.04
2022-09-21T01:08:10.170Z,27.70
2022-09-21T01:09:11.890Z,28.49
2022-09-21T01:10:19.416Z,27.78
2022-09-21T01:11:43.895Z,28.04
2022-09-21T01:13:26.796Z,28.38
2022-09-21T01:14:47.373Z,27.59
2022-09-21T01:16:04.506Z,27.57
2022-09-21T01:17:22.061Z,27.59
2022-09-21T01:18:37.580Z,27.61
2022-09-21T01:20:03.329Z,27.69
2022-09-21T01:21:14.212Z,28.40
2022-09-21T01:23:00.524Z,27.92
2022-09-21T01:24:16.429Z,28.02
2022-09-21T01:25:32.272Z,27.66
2022-09-21T01:27:00.479Z,28.04
2022-09-21T01:28:21.556Z,27.88
2022-09-21T01:29:32.151Z,27.94
2022-09-21T01:30:37.951Z,28.03
2022-09-21T01:32:05.364Z,28.01
2022-09-21T01:33:15.943Z,27.68
2022-09-21T01:34:33.575Z,27.82
2022-09-21T01:35:40.666Z,27.58
2022-09-21T01:36:44.848Z,27.67
2022-09-21T01:38:00.437Z,28.16
2022-09-21T01:39:14.460Z,28.35
2022-09-21T01:40:58.436Z,27.61
2022-09-21T01:42:01.606Z,28.21
2022-09-21T01:43:07.123Z,27.86
2022-09-21T01:44:20.014Z,27.89
2022-09-21T01:45:35.233Z,27.75
2022-09-21T01:46:38.095Z,27.63
2022-09-21T01:47:42.523Z,28.06
2022-09-21T01:48:49.493Z,27.85
2022-09-21T01:49:55.892Z,28.35
2022-09-21T01:50:59.729Z,27.92
2022-09-21T01:52:11.396Z,28.15
2022-09-21T01:53:32.005Z,27.69
2022-09-21T01:54:41.232Z,27.89
2022-09-21T01:55:51.801Z,28.11
2022-09-21T01:57:01.717Z,27.70
2022-09-21T01:58:18.133Z,27.56
2022-09-21T01:59:32.814Z,28.30
2022-09-21T02:00:36.570Z,28.15
2022-09-21T02:01:44.879Z,27.88
2022-09-21T02:03:12.864Z,27.72
2022-09-21T02:04:15.236Z,28.14
2022-09-21T02:05:20.218Z,27.95
2022-09-21T02:06:22.004Z,28.37
2022-09-21T02:07:25.150Z,28.20
2022-09-21T02:08:32.200Z,27.87
2022-09-21T02:09:37.317Z,28.02
2022-09-21T02:10:52.763Z,27.73
2022-09-21T02:11:54.510Z,27.95
2022-09-21T02:13:01.404Z,27.88
2022-09-21T02:14:03.321Z,28.37
2022-09-21T02:15:05.457Z,28.16
2022-09-21T02:16:07.203Z,27.84
2022-09-21T02:17:42.091Z,28.61
2022-09-21T02:18:50.321Z,27.79
2022-09-21T02:20:27.460Z,27.59
2022-09-21T02:21:50.557Z,27.43
2022-09-21T02:23:06.853Z,28.18
2022-09-21T02:24:21.008Z,28.24
2022-09-21T02:25:40.196Z,27.73
2022-09-21T02:27:07.418Z,28.07
2022-09-21T02:28:23.596Z,28.22
2022-09-21T02:29:33.630Z,27.54
2022-09-21T02:30:37.520Z,28.00
2022-09-21T02:31:49.530Z,28.15
2022-09-21T02:33:13.366Z,28.00
2022-09-21T02:34:43.191Z,28.34
2022-09-21T02:36:28.474Z,27.72
2022-09-21T02:37:44.222Z,27.65
2022-09-21T02:38:54.787Z,27.72
2022-09-21T02:40:04.415Z,27.74
2022-09-21T02:41:17.109Z,27.47
2022-09-21T02:42:26.896Z,27.64
2022-09-21T02:43:37.639Z,27.98
2022-09-21T02:44:52.883Z,27.88
2022-09-21T02:45:59.726Z,27.70
2022-09-21T02:47:09.610Z,28.45
2022-09-21T02:48:19.182Z,27.84
2022-09-21T02:49:32.749Z,28.21
2022-09-21T02:50:47.913Z,28.35
2022-09-21T02:51:52.405Z,28.26
2022-09-21T02:52:54.901Z,27.75
2022-09-21T02:53:58.731Z,27.78
2022-09-21T02:55:01.995Z,27.92
2022-09-21T02:56:07.431Z,28.01
2022-09-21T02:57:12.046Z,28.21
2022-09-21T02:58:16.606Z,28.24
2022-09-21T02:59:18.853Z,28.39
2022-09-21T03:00:20.774Z,28.00
2022-09-21T03:01:24.299Z,28.12
2022-09-21T03:02:37.013Z,28.10
2022-09-21T03:03:39.058Z,28.33
2022-09-21T03:04:43.645Z,27.69
2022-09-21T03:05:48.700Z,27.62
2022-09-21T03:06:50.402Z,28.45
2022-09-21T03:07:52.131Z,28.08
2022-09-21T03:08:53.914Z,28.15
2022-09-21T03:09:55.626Z,27.96
2022-09-21T03:10:57.893Z,28.00
2022-09-21T03:11:59.658Z,28.32
2022-09-21T03:13:01.722Z,28.10
2022-09-21T03:14:08.682Z,28.55
2022-09-21T03:15:10.638Z,27.69
2022-09-21T03:16:13.111Z,28.14
2022-09-21T03:17:14.880Z,28.38
2022-09-21T03:18:16.718Z,28.51
2022-09-21T03:19:18.423Z,28.08
2022-09-21T03:20:20.105Z,28.56
2022-09-21T03:21:22.238Z,28.52
2022-09-21T03:22:24.436Z,28.19
2022-09-21T03:23:26.550Z,28.07
2022-09-21T03:24:46.601Z,28.20
2022-09-21T03:25:48.645Z,28.45
2022-09-21T03:26:50.306Z,28.05
2022-09-21T03:27:55.001Z,28.09
2022-09-21T03:28:56.884Z,28.24
2022-09-21T03:30:01.983Z,27.99
2022-09-21T03:31:04.269Z,27.78
2022-09-21T03:32:06.258Z,28.07
2022-09-21T03:33:08.365Z,28.20
2022-09-21T03:34:11.512Z,27.66
2022-09-21T03:35:13.265Z,28.27
2022-09-21T03:36:14.973Z,27.81
2022-09-21T03:37:17.054Z,27.72
2022-09-21T03:38:21.237Z,28.09
2022-09-21T03:39:23.001Z,27.75
2022-09-21T03:40:27.020Z,28.09
2022-09-21T03:41:28.793Z,28.17
2022-09-21T03:42:30.468Z,28.34
2022-09-21T03:43:33.116Z,28.55
2022-09-21T03:44:34.947Z,28.17
2022-09-21T03:45:38.063Z,28.24
2022-09-21T03:46:39.866Z,28.21
2022-09-21T03:47:42.332Z,28.52
2022-09-21T03:48:47.557Z,27.78
2022-09-21T03:49:49.239Z,27.74
2022-09-21T03:50:51.518Z,27.78
2022-09-21T03:51:53.330Z,28.07
2022-09-21T03:52:58.357Z,28.51
2022-09-21T03:54:00.064Z,27.83
2022-09-21T03:55:05.149Z,28.27
2022-09-21T03:56:06.819Z,28.08
2022-09-21T03:57:09.022Z,28.50
2022-09-21T03:58:10.842Z,28.32
2022-09-21T03:59:14.263Z,28.56
2022-09-21T04:00:16.771Z,28.38
2022-09-21T04:01:18.511Z,27.84
2022-09-21T04:02:20.491Z,28.25
2022-09-21T04:03:22.331Z,27.87
2022-09-21T04:04:24.186Z,28.26
2022-09-21T04:05:26.296Z,28.01
2022-09-21T04:06:28.023Z,27.89
2022-09-21T04:07:37.070Z,28.68
2022-09-21T04:08:39.803Z,28.23
2022-09-21T04:09:42.002Z,28.30
2022-09-21T04:10:44.158Z,28.49
2022-09-21T04:11:46.663Z,27.85
2022-09-21T04:12:48.779Z,28.13
2022-09-21T04:13:58.226Z,28.41
2022-09-21T04:15:00.696Z,28.16
2022-09-21T04:16:02.520Z,28.09
2022-09-21T04:17:04.658Z,28.32
2022-09-21T04:18:06.514Z,28.29
2022-09-21T04:19:08.279Z,28.24
2022-09-21T04:20:10.159Z,27.97
2022-09-21T04:21:11.954Z,28.49
2022-09-21T04:22:14.003Z,28.29
2022-09-21T04:23:15.689Z,27.87
2022-09-21T04:24:19.380Z,28.61
2022-09-21T04:25:21.142Z,28.23
2022-09-21T04:26:27.234Z,28.80
2022-09-21T04:27:28.934Z,28.46
2022-09-21T04:28:32.461Z,28.56
2022-09-21T04:29:34.271Z,28.34
2022-09-21T04:30:37.925Z,28.52
2022-09-21T04:31:40.123Z,27.78
2022-09-21T04:32:42.296Z,28.38
2022-09-21T04:33:44.339Z,28.41
2022-09-21T04:34:46.069Z,27.92
2022-09-21T04:35:48.307Z,27.97
2022-09-21T04:36:49.974Z,28.66
2022-09-21T04:37:55.845Z,28.19
2022-09-21T04:38:58.490Z,28.49
2022-09-21T04:40:00.958Z,28.26
2022-09-21T04:41:03.562Z,28.15
2022-09-21T04:42:05.783Z,28.62
2022-09-21T04:43:07.469Z,28.11
2022-09-21T04:44:09.274Z,28.45
2022-09-21T04:45:11.320Z,28.01
2022-09-21T04:46:15.522Z,28.36
2022-09-21T04:47:17.492Z,28.20
2022-09-21T04:48:19.174Z,28.48
2022-09-21T04:49:21.177Z,28.49
2022-09-21T04:50:22.918Z,28.36
2022-09-21T04:51:37.857Z,28.33
2022-09-21T04:52:40.647Z,27.98
2022-09-21T04:53:44.063Z,28.08
2022-09-21T04:54:46.579Z,28.43
2022-09-21T04:55:48.359Z,28.47
2022-09-21T04:56:50.089Z,28.38
2022-09-21T04:57:51.819Z,28.35
2022-09-21T04:58:53.736Z,28.17
2022-09-21T04:59:55.479Z,28.02
2022-09-21T05:00:57.210Z,27.98
2022-09-21T05:01:58.894Z,28.25
2022-09-21T05:03:00.594Z,27.98
2022-09-21T05:04:03.057Z,28.79
2022-09-21T05:05:05.155Z,28.47
2022-09-21T05:06:08.952Z,28.24
2022-09-21T05:07:10.870Z,28.67
2022-09-21T05:08:12.542Z,28.41
2022-09-21T05:09:32.823Z,28.40
2022-09-21T05:10:35.110Z,28.35
2022-09-21T05:11:36.836Z,28.16
2022-09-21T05:12:41.023Z,28.31
2022-09-21T05:13:43.195Z,28.31
2022-09-21T05:14:45.201Z,28.19
2022-09-21T05:15:46.930Z,28.56
2022-09-21T05:16:49.845Z,28.15
2022-09-21T05:17:51.511Z,28.67
2022-09-21T05:18:55.624Z,28.19
2022-09-21T05:19:57.461Z,28.33
2022-09-21T05:21:01.198Z,27.79
2022-09-21T05:22:02.890Z,28.31
2022-09-21T05:23:04.654Z,28.50
2022-09-21T05:24:06.511Z,27.95
2022-09-21T05:25:08.930Z,28.36
2022-09-21T05:26:10.597Z,28.04
2022-09-21T05:27:13.139Z,27.45
2022-09-21T05:28:15.601Z,27.91
2022-09-21T05:29:17.627Z,27.80
2022-09-21T05:30:19.917Z,27.99
2022-09-21T05:31:38.319Z,27.74
2022-09-21T05:32:49.245Z,27.47
2022-09-21T05:33:55.823Z,27.45
2022-09-21T05:35:11.160Z,27.16
2022-09-21T05:36:27.584Z,27.54
2022-09-21T05:37:47.445Z,26.93
2022-09-21T05:38:49.516Z,27.46
2022-09-21T05:39:51.539Z,27.37
2022-09-21T05:40:54.148Z,27.11
2022-09-21T05:41:56.090Z,26.81
2022-09-21T05:42:58.063Z,27.52
2022-09-21T05:44:00.290Z,26.82
2022-09-21T05:45:02.623Z,26.75
2022-09-21T05:46:35.036Z,26.98
2022-09-21T05:47:45.544Z,26.92
2022-09-21T05:49:03.063Z,27.35
2022-09-21T05:50:23.258Z,27.02
2022-09-21T05:51:58.573Z,26.68
2022-09-21T05:53:00.338Z,26.48
2022-09-21T05:54:09.423Z,27.15
2022-09-21T05:55:35.443Z,27.23
2022-09-21T05:56:37.146Z,26.59
2022-09-21T05:58:05.073Z,26.55
2022-09-21T05:59:32.744Z,26.88
2022-09-21T06:00:52.753Z,26.69
2022-09-21T06:02:20.717Z,27.07
2022-09-21T06:03:32.439Z,26.40
2022-09-21T06:04:34.860Z,27.01
2022-09-21T06:05:36.587Z,26.78
2022-09-21T06:06:38.369Z,26.62
2022-09-21T06:07:41.619Z,27.07
2022-09-21T06:08:43.347Z,26.84
2022-09-21T06:09:45.494Z,26.68
2022-09-21T06:10:47.298Z,26.75
2022-09-21T06:11:49.043Z,27.26
2022-09-21T06:12:50.880Z,26.51
2022-09-21T06:13:52.618Z,26.57
2022-09-21T06:14:56.494Z,26.89
2022-09-21T06:16:01.408Z,26.53
2022-09-21T06:17:03.609Z,26.39
2022-09-21T06:18:09.022Z,27.10
2022-09-21T06:19:13.983Z,26.93
2022-09-21T06:20:15.666Z,26.85
2022-09-21T06:21:17.435Z,26.49
2022-09-21T06:22:19.406Z,26.26
2022-09-21T06:23:21.106Z,26.83
2022-09-21T06:24:24.845Z,26.66
2022-09-21T06:25:27.052Z,26.56
2022-09-21T06:26:28.970Z,26.31
2022-09-21T06:27:31.011Z,26.89
2022-09-21T06:28:32.698Z,26.79
2022-09-21T06:29:34.471Z,26.82
2022-09-21T06:30:37.059Z,26.55
2022-09-21T06:31:39.175Z,26.32
2022-09-21T06:32:40.950Z,26.25
2022-09-21T06:33:47.407Z,26.44
2022-09-21T06:34:50.106Z,26.60
2022-09-21T06:35:58.563Z,26.34
2022-09-21T06:37:00.302Z,26.45
2022-09-21T06:38:06.751Z,26.73
2022-09-21T06:39:08.527Z,26.14
2022-09-21T06:40:10.603Z,26.83
2022-09-21T06:41:15.229Z,26.13
2022-09-21T06:42:19.168Z,26.03
2022-09-21T06:43:22.607Z,26.83
2022-09-21T06:44:24.259Z,26.67
2022-09-21T06:45:26.809Z,26.73
2022-09-21T06:46:28.488Z,26.23
2022-09-21T06:47:30.254Z,26.48
2022-09-21T06:48:34.277Z,26.39
2022-09-21T06:49:40.422Z,26.75
2022-09-21T06:50:44.038Z,26.45
2022-09-21T06:51:48.367Z,26.30
2022-09-21T06:52:50.167Z,26.14
2022-09-21T06:53:56.045Z,26.46
2022-09-21T06:54:57.705Z,26.42
2022-09-21T06:56:07.379Z,26.23
2022-09-21T06:57:09.162Z,26.84
2022-09-21T06:58:11.402Z,26.79
2022-09-21T06:59:13.422Z,27.00
2022-09-21T07:00:15.438Z,26.75
2022-09-21T07:01:17.213Z,27.04
2022-09-21T07:02:19.165Z,26.88
2022-09-21T07:03:20.933Z,26.73
2022-09-21T07:04:25.313Z,26.74
2022-09-21T07:05:27.214Z,26.84
2022-09-21T07:06:29.823Z,26.69
2022-09-21T07:07:31.688Z,26.70
2022-09-21T07:11:16.993Z,26.36
2022-09-21T07:12:19.014Z,26.25
2022-09-21T07:13:20.670Z,26.94
2022-09-21T07:14:22.766Z,26.78
2022-09-21T07:15:25.688Z,26.84
2022-09-21T07:16:28.131Z,26.79
2022-09-21T07:17:34.924Z,26.94
2022-09-21T07:18:43.392Z,27.02
2022-09-21T07:19:46.243Z,26.89
2022-09-21T07:20:49.251Z,26.69
2022-09-21T07:21:53.878Z,26.28
2022-09-21T07:22:55.604Z,26.41
2022-09-21T07:24:00.051Z,26.55
2022-09-21T07:25:01.923Z,26.66
2022-09-21T07:26:09.315Z,26.71
2022-09-21T07:27:11.034Z,26.81
2022-09-21T07:28:13.224Z,27.02
2022-09-21T07:29:15.188Z,26.99
2022-09-21T07:30:16.986Z,26.65
2022-09-21T07:31:19.059Z,27.12
2022-09-21T07:32:21.474Z,27.15
2022-09-21T07:33:23.427Z,26.34
2022-09-21T07:34:25.189Z,26.72
2022-09-21T07:35:26.872Z,27.16
2022-09-21T07:36:28.598Z,26.88
2022-09-21T07:37:31.875Z,26.76
2022-09-21T07:38:39.895Z,26.46
2022-09-21T07:39:41.710Z,26.80
2022-09-21T07:40:43.523Z,26.58
2022-09-21T07:41:45.330Z,26.81
2022-09-21T07:42:47.046Z,26.67
2022-09-21T07:43:48.839Z,27.09
2022-09-21T07:44:51.244Z,26.50
2022-09-21T07:45:57.272Z,26.83
2022-09-21T07:46:59.082Z,26.92
2022-09-21T07:48:05.395Z,26.99
2022-09-21T07:49:07.267Z,26.65
2022-09-21T07:50:09.825Z,26.50
2022-09-21T07:51:13.985Z,26.50
2022-09-21T07:52:15.992Z,26.60
2022-09-21T07:53:18.003Z,26.92
2022-09-21T07:54:19.722Z,26.65
2022-09-21T07:55:21.520Z,26.91
2022-09-21T07:56:23.455Z,26.58
2022-09-21T07:57:43.585Z,26.96
2022-09-21T07:59:03.811Z,26.61
2022-09-21T08:00:06.185Z,26.75
2022-09-21T08:01:13.500Z,26.52
2022-09-21T08:02:15.320Z,26.68
2022-09-21T08:03:17.254Z,26.92
2022-09-21T08:04:19.219Z,26.95
2022-09-21T08:05:20.962Z,26.56
2022-09-21T08:06:23.891Z,27.02
2022-09-21T08:07:27.961Z,26.47
2022-09-21T08:08:29.711Z,26.43
2022-09-21T08:09:31.439Z,26.92
2022-09-21T08:10:33.395Z,26.62
2022-09-21T08:11:36.068Z,26.54
2022-09-21T08:12:37.763Z,26.51
2022-09-21T08:13:39.578Z,26.61
2022-09-21T08:14:41.513Z,26.61
2022-09-21T08:15:49.677Z,26.87
2022-09-21T08:16:52.260Z,26.52
2022-09-21T08:17:54.582Z,27.23
2022-09-21T08:18:56.682Z,26.52
2022-09-21T08:19:58.777Z,26.53
2022-09-21T08:21:01.057Z,26.87
2022-09-21T08:22:02.933Z,26.48
2022-09-21T08:23:05.065Z,26.79
2022-09-21T08:24:07.330Z,26.60
2022-09-21T08:25:11.104Z,26.60
2022-09-21T08:26:18.256Z,27.04
2022-09-21T08:27:20.391Z,26.53
2022-09-21T08:28:22.126Z,26.87
2022-09-21T08:29:25.142Z,26.49
2022-09-21T08:30:28.647Z,26.58
2022-09-21T08:31:31.098Z,26.89
2022-09-21T08:32:50.489Z,26.75
2022-09-21T08:33:54.789Z,26.59
2022-09-21T08:34:56.454Z,26.64
2022-09-21T08:36:00.046Z,27.07
2022-09-21T08:37:01.818Z,26.65
2022-09-21T08:38:03.558Z,26.79
2022-09-21T08:39:09.353Z,26.47
2022-09-21T08:40:12.458Z,27.04
2022-09-21T08:41:17.034Z,26.97
2022-09-21T08:42:50.671Z,26.69
2022-09-21T08:43:58.238Z,26.84
2022-09-21T08:45:10.242Z,26.87
2022-09-21T08:46:19.178Z,26.38
2022-09-21T08:47:43.699Z,26.43
2022-09-21T08:48:54.523Z,26.45
2022-09-21T08:50:00.667Z,26.61
2022-09-21T08:51:06.209Z,26.89
2022-09-21T08:52:16.261Z,26.88
2022-09-21T08:53:50.329Z,26.42
2022-09-21T08:54:57.770Z,26.54
2022-09-21T08:55:59.814Z,26.59
2022-09-21T08:57:05.407Z,26.79
2022-09-21T08:58:33.359Z,26.84
2022-09-21T08:59:35.442Z,26.41
2022-09-21T09:00:40.812Z,26.80
2022-09-21T09:01:45.655Z,26.44
2022-09-21T09:03:08.768Z,26.28
2022-09-21T09:04:42.862Z,26.41
2022-09-21T09:05:44.583Z,26.53
2022-09-21T09:07:28.330Z,26.59
2022-09-21T09:08:48.146Z,26.23
2022-09-21T09:10:11.700Z,26.49
2022-09-21T09:11:32.094Z,25.83
2022-09-21T09:12:53.783Z,26.38
2022-09-21T09:14:27.641Z,26.42
2022-09-21T09:16:17.393Z,26.16
2022-09-21T09:17:59.019Z,26.23
2022-09-21T09:19:21.135Z,25.97
2022-09-21T09:20:30.905Z,25.84
2022-09-21T09:21:38.386Z,26.22
2022-09-21T09:23:25.151Z,26.58
2022-09-21T09:24:38.915Z,26.14
2022-09-21T09:25:42.847Z,26.05
2022-09-21T09:27:00.563Z,26.48
2022-09-21T09:28:13.679Z,26.03
2022-09-21T09:30:06.403Z,26.44
2022-09-21T09:31:21.677Z,25.89
2022-09-21T09:32:32.639Z,25.88
2022-09-21T09:33:53.935Z,26.04
2022-09-21T09:35:19.821Z,26.05
2022-09-21T09:36:46.579Z,26.16
2022-09-21T09:37:48.654Z,26.17
2022-09-21T09:38:57.573Z,25.99
2022-09-21T09:40:01.640Z,26.07
2022-09-21T09:41:09.159Z,26.46
2022-09-21T09:42:13.847Z,26.80
2022-09-21T09:43:37.344Z,26.47
2022-09-21T09:44:44.887Z,26.15
2022-09-21T09:45:56.336Z,26.37
2022-09-21T09:47:12.775Z,26.62
2022-09-21T09:48:17.186Z,26.09
2022-09-21T09:49:38.279Z,26.56
2022-09-21T09:50:41.769Z,26.85
2022-09-21T09:51:43.651Z,26.92
2022-09-21T09:52:46.874Z,26.62
2022-09-21T09:53:49.195Z,26.87
2022-09-21T09:54:50.927Z,26.82
2022-09-21T09:55:55.167Z,26.34
2022-09-21T09:56:56.956Z,26.32
2022-09-21T09:57:59.140Z,26.98
2022-09-21T09:59:08.323Z,26.65
2022-09-21T10:00:14.600Z,26.76
2022-09-21T10:01:39.042Z,26.44
2022-09-21T10:02:55.548Z,26.58
2022-09-21T10:04:20.567Z,26.67
2022-09-21T10:05:31.172Z,26.38
2022-09-21T10:06:33.361Z,26.34
2022-09-21T10:07:43.867Z,26.36
2022-09-21T10:08:48.574Z,26.87
2022-09-21T10:09:50.251Z,26.65
2022-09-21T10:10:52.062Z,26.44
2022-09-21T10:11:58.391Z,26.92
2022-09-21T10:13:21.989Z,26.80
2022-09-21T10:14:26.630Z,26.46
2022-09-21T10:15:29.959Z,26.97
2022-09-21T10:16:32.066Z,26.51
2022-09-21T10:17:33.873Z,27.27
2022-09-21T10:18:45.250Z,27.10
2022-09-21T10:19:47.158Z,26.39
2022-09-21T10:21:08.547Z,26.83
2022-09-21T10:22:18.056Z,26.64
2022-09-21T10:23:20.098Z,26.89
2022-09-21T10:24:23.620Z,26.98
2022-09-21T10:25:25.471Z,26.81
2022-09-21T10:26:41.151Z,26.96
2022-09-21T10:27:46.644Z,26.47
2022-09-21T10:29:23.473Z,26.76
2022-09-21T10:30:31.810Z,26.46
2022-09-21T10:31:33.524Z,26.54
2022-09-21T10:32:36.845Z,26.69
2022-09-21T10:33:49.993Z,27.03
2022-09-21T10:35:16.425Z,26.66
2022-09-21T10:36:35.994Z,26.97
2022-09-21T10:37:42.777Z,26.99
2022-09-21T10:38:45.843Z,26.50
2022-09-21T10:39:47.561Z,26.56
2022-09-21T10:40:50.261Z,27.04
2022-09-21T10:41:59.204Z,26.72
2022-09-21T10:43:00.939Z,26.66
2022-09-21T10:44:02.732Z,27.09
2022-09-21T10:45:16.296Z,26.87
2022-09-21T10:46:18.347Z,27.15
2022-09-21T10:47:42.586Z,27.09
2022-09-21T10:48:47.033Z,26.85
2022-09-21T10:49:55.175Z,27.25
2022-09-21T10:50:57.979Z,27.19
2022-09-21T10:52:02.078Z,26.74
2022-09-21T10:53:09.719Z,27.00
2022-09-21T10:54:11.919Z,27.31
2022-09-21T10:55:19.987Z,27.00
2022-09-21T10:56:21.815Z,27.06
2022-09-21T10:57:26.131Z,26.91
2022-09-21T10:58:28.774Z,26.84
2022-09-21T10:59:36.359Z,26.86
2022-09-21T11:00:48.158Z,27.10
2022-09-21T11:01:52.792Z,27.02
2022-09-21T11:02:56.286Z,27.17
2022-09-21T11:04:08.815Z,27.02
2022-09-21T11:05:28.668Z,26.50
2022-09-21T11:06:34.157Z,26.62
2022-09-21T11:08:02.705Z,26.65
2022-09-21T11:09:09.343Z,26.52
2022-09-21T11:10:14.078Z,26.45
2022-09-21T11:11:46.835Z,26.25
2022-09-21T11:13:05.942Z,26.33
2022-09-21T11:14:14.328Z,26.29
2022-09-21T11:15:23.196Z,26.72
2022-09-21T11:16:32.435Z,26.45
2022-09-21T11:17:55.196Z,26.34
2022-09-21T11:19:18.764Z,26.32
2022-09-21T11:20:30.275Z,26.34
2022-09-21T11:22:12.319Z,26.53
2022-09-21T11:23:21.762Z,26.29
2022-09-21T11:24:36.822Z,26.48
2022-09-21T11:25:55.866Z,26.52
2022-09-21T11:27:07.017Z,26.50
2022-09-21T11:28:17.934Z,25.95
2022-09-21T11:29:31.936Z,26.53
2022-09-21T11:30:48.862Z,26.33
2022-09-21T11:32:37.981Z,25.92
2022-09-21T11:33:49.080Z,25.95
2022-09-21T11:35:00.326Z,25.78
2022-09-21T11:36:17.975Z,26.38
2022-09-21T11:37:25.867Z,25.91
2022-09-21T11:39:06.587Z,26.28
2022-09-21T11:40:45.659Z,26.31
2022-09-21T11:42:11.225Z,26.62
2022-09-21T11:43:40.322Z,26.14
2022-09-21T11:44:54.048Z,26.09
2022-09-21T11:46:07.843Z,26.65
2022-09-21T11:47:21.464Z,26.84
2022-09-21T11:48:44.938Z,26.38
2022-09-21T11:50:29.243Z,27.00
2022-09-21T11:51:42.171Z,26.39
2022-09-21T11:53:22.698Z,26.37
2022-09-21T11:54:53.509Z,26.97
2022-09-21T11:56:16.165Z,27.06
2022-09-21T11:57:35.836Z,26.29
2022-09-21T11:58:45.475Z,26.76
2022-09-21T12:00:11.877Z,26.93
2022-09-21T12:01:31.964Z,27.14
2022-09-21T12:03:07.435Z,26.84
2022-09-21T12:04:34.118Z,26.66
2022-09-21T12:06:03.549Z,27.20
2022-09-21T12:07:24.597Z,27.25
2022-09-21T12:08:53.698Z,27.08
2022-09-21T12:10:22.730Z,27.24
2022-09-21T12:11:38.267Z,26.80
2022-09-21T12:13:09.259Z,27.00
2022-09-21T12:14:25.557Z,26.68
2022-09-21T12:15:51.367Z,27.18
2022-09-21T12:17:16.057Z,27.07
2022-09-21T12:18:43.869Z,26.79
2022-09-21T12:20:22.747Z,26.54
2022-09-21T12:21:30.004Z,26.87
2022-09-21T12:22:36.237Z,27.33
2022-09-21T12:23:43.151Z,27.15
2022-09-21T12:24:50.997Z,26.90
2022-09-21T12:25:57.390Z,26.96
2022-09-21T12:27:07.360Z,27.53
2022-09-21T12:28:20.749Z,27.01
2022-09-21T12:29:47.785Z,27.13
2022-09-21T12:30:56.297Z,27.16
2022-09-21T12:32:28.507Z,26.92
2022-09-21T12:33:40.728Z,27.42
2022-09-21T12:34:52.388Z,27.34
2022-09-21T12:36:08.751Z,27.04
2022-09-21T12:37:19.251Z,27.26
2022-09-21T12:38:42.914Z,27.17
2022-09-21T12:39:51.668Z,27.54
2022-09-21T12:40:56.247Z,27.30
2022-09-21T12:42:06.242Z,27.02
2022-09-21T12:43:30.790Z,27.01
2022-09-21T12:44:52.513Z,27.31
2022-09-21T12:46:02.752Z,27.12
2022-09-21T12:47:10.799Z,26.92
2022-09-21T12:48:31.925Z,27.24
2022-09-21T12:49:33.886Z,27.26
2022-09-21T12:50:43.710Z,27.49
2022-09-21T12:51:59.291Z,27.29
2022-09-21T12:53:01.616Z,27.52
2022-09-21T12:54:24.256Z,27.60
2022-09-21T12:55:31.705Z,27.46
2022-09-21T12:56:53.895Z,27.46
2022-09-21T12:58:15.896Z,27.33
2022-09-21T12:59:44.290Z,27.44
2022-09-21T13:01:09.401Z,27.37
2022-09-21T13:02:20.065Z,26.95
2022-09-21T13:03:37.279Z,27.20
2022-09-21T13:05:07.285Z,27.29
2022-09-21T13:06:31.179Z,27.21
2022-09-21T13:07:48.090Z,27.16
2022-09-21T13:08:50.801Z,27.19
2022-09-21T13:09:53.353Z,27.68
2022-09-21T13:10:55.598Z,27.63
2022-09-21T13:12:07.582Z,27.23
2022-09-21T13:13:30.327Z,27.55
2022-09-21T13:14:36.383Z,27.13
2022-09-21T13:15:51.575Z,27.29
2022-09-21T13:16:57.796Z,27.44
2022-09-21T13:18:05.895Z,27.83
2022-09-21T13:19:13.724Z,27.85
2022-09-21T13:20:22.418Z,27.57
2022-09-21T13:21:36.132Z,27.51
2022-09-21T13:22:38.044Z,27.55
2022-09-21T13:23:42.168Z,27.69
2022-09-21T13:24:45.615Z,27.75
2022-09-21T13:25:50.875Z,27.41
2022-09-21T13:26:56.690Z,27.91
2022-09-21T13:28:09.983Z,27.69
2022-09-21T13:29:17.687Z,27.72
2022-09-21T13:30:38.282Z,27.10
2022-09-21T13:32:00.359Z,27.67
2022-09-21T13:33:03.974Z,27.56
2022-09-21T13:34:21.199Z,27.61
2022-09-21T13:36:03.923Z,27.44
2022-09-21T13:37:22.178Z,27.40
2022-09-21T13:38:42.370Z,27.07
2022-09-21T13:39:45.474Z,27.09
2022-09-21T13:41:01.131Z,27.42
2022-09-21T13:42:30.896Z,27.24
2022-09-21T13:43:50.210Z,27.68
2022-09-21T13:44:52.019Z,27.33
2022-09-21T13:45:56.354Z,27.77
2022-09-21T13:46:58.568Z,28.01
2022-09-21T13:48:19.425Z,27.31
2022-09-21T13:49:47.179Z,27.66
2022-09-21T13:50:49.423Z,27.70
2022-09-21T13:51:52.930Z,27.29
2022-09-21T13:53:04.778Z,27.30
2022-09-21T13:54:06.903Z,27.99
2022-09-21T13:55:32.094Z,27.66
2022-09-21T13:56:33.893Z,27.87
2022-09-21T13:57:40.214Z,27.65
2022-09-21T13:58:46.943Z,27.35
2022-09-21T14:00:20.040Z,27.54
2022-09-21T14:02:58.532Z,27.69
2022-09-21T14:04:04.281Z,27.62
2022-09-21T14:05:18.350Z,27.81
2022-09-21T14:06:32.654Z,27.67
2022-09-21T14:07:35.489Z,27.82
2022-09-21T14:08:50.855Z,27.36
2022-09-21T14:09:59.303Z,28.16
2022-09-21T14:11:15.478Z,27.60
2022-09-21T14:12:25.313Z,27.71
2022-09-21T14:13:33.865Z,28.14
2022-09-21T14:14:38.265Z,28.04
2022-09-21T14:15:40.352Z,27.88
2022-09-21T14:16:45.582Z,27.63
2022-09-21T14:18:16.413Z,27.45
2022-09-21T14:19:18.084Z,27.50
2022-09-21T14:20:39.650Z,27.55
2022-09-21T14:22:07.652Z,27.52
2022-09-21T14:23:12.231Z,27.60
2022-09-21T14:24:23.011Z,27.69
2022-09-21T14:25:28.455Z,27.68
2022-09-21T14:26:35.602Z,27.96
2022-09-21T14:27:45.831Z,28.04
2022-09-21T14:28:52.247Z,27.76
2022-09-21T14:30:00.503Z,27.55
2022-09-21T14:31:17.661Z,28.06
2022-09-21T14:32:23.721Z,27.51
2022-09-21T14:33:30.583Z,27.82
2022-09-21T14:34:36.982Z,28.04
2022-09-21T14:35:43.677Z,27.84
2022-09-21T14:36:50.136Z,28.24
2022-09-21T14:38:00.033Z,28.22
2022-09-21T14:39:04.391Z,28.03
2022-09-21T14:40:39.180Z,27.96
2022-09-21T14:41:43.438Z,27.80
2022-09-21T14:42:46.211Z,28.08
2022-09-21T14:43:54.357Z,28.28
2022-09-21T14:45:02.467Z,27.83
2022-09-21T14:46:16.700Z,27.85
2022-09-21T14:47:44.438Z,28.05
2022-09-21T14:49:07.583Z,28.19
2022-09-21T14:50:28.969Z,27.71
2022-09-21T14:51:55.836Z,27.81
2022-09-21T14:53:29.380Z,28.09